Terminal Aerodrome Forecast
Issued by NWS Des Moines, IA

Home | Current Version | Previous Version | Text Only | Print | Product List | Glossary On
Versions: 1 2 3 4 5 6 7 8 9 10 11 12 13 14 15 16 17 18 19 20 21 22 23 24 25 26 27 28 29 30 31
000
FTUS43 KDMX 210535
TAFALO
TAF
KALO 210535Z 2106/2206 29007KT P6SM FEW050 BKN150
     FM210800 29006KT P6SM SKC
     FM211000 31003KT 3SM BR SKC
     FM211200 VRB03KT 1 1/2SM BR SCT004
     FM211500 23004KT 4SM BR SCT120
     FM211700 21009KT P6SM SCT120=

USA.gov is the U.S. government's official web portal to all federal, state and local government web resources and services.